Time;durP1;ratioP1;P1;durP2;ratioP2;P2;SDS_P1;SDS_P2;PMS_P1;PMS_P2;Temp;Humidity;BMP_temperature;BMP_pressure;BME280_temperature;BME280_humidity;BME280_pressure;Samples;Min_cycle;Max_cycle;Signal;HPM_P1;HPM_P2
2024/01/24 06:00:36;;;;;;;2.90;1.30;;;;;;;;;;1742670;28;20175;-77
2024/01/24 06:01:27;;;;;;;3.25;1.77;;;;;;;;;;1742794;28;21708;-76
2024/01/24 06:02:18;;;;;;;2.10;1.20;;;;;;;;;;1743086;28;20199;-76
2024/01/24 06:03:11;;;;;;;3.20;1.20;;;;;;;;;;1744081;28;20194;-75
2024/01/24 06:04:02;;;;;;;2.95;1.00;;;;;;;;;;1746046;28;20202;-78
2024/01/24 06:04:53;;;;;;;2.45;1.50;;;;;;;;;;1744191;28;20206;-75
2024/01/24 06:05:45;;;;;;;2.70;2.50;;;;;;;;;;1749877;28;20562;-77
2024/01/24 06:06:36;;;;;;;4.10;2.35;;;;;;;;;;1750194;28;20663;-77
2024/01/24 06:07:27;;;;;;;4.40;2.75;;;;;;;;;;1745564;28;20206;-78
2024/01/24 06:08:19;;;;;;;3.60;2.03;;;;;;;;;;1743310;28;20222;-77
2024/01/24 06:09:10;;;;;;;4.55;2.30;;;;;;;;;;1746752;28;20217;-76
2024/01/24 06:10:01;;;;;;;2.85;1.63;;;;;;;;;;1750129;28;20194;-77
2024/01/24 06:10:53;;;;;;;3.75;1.85;;;;;;;;;;1744772;28;20630;-77
2024/01/24 06:11:45;;;;;;;1.73;1.48;;;;;;;;;;1747867;28;20198;-78
2024/01/24 06:12:37;;;;;;;2.58;1.30;;;;;;;;;;1744041;28;20625;-78
2024/01/24 06:13:28;;;;;;;2.25;1.33;;;;;;;;;;1751200;28;20205;-77
2024/01/24 06:14:20;;;;;;;2.67;1.30;;;;;;;;;;1750736;28;20560;-78
2024/01/24 06:15:12;;;;;;;4.50;1.50;;;;;;;;;;1744831;28;20653;-78
2024/01/24 06:16:05;;;;;;;2.53;1.40;;;;;;;;;;1743250;28;20241;-78
2024/01/24 06:16:57;;;;;;;4.43;1.70;;;;;;;;;;1747940;28;20205;-76
2024/01/24 06:17:48;;;;;;;7.15;2.13;;;;;;;;;;1750023;28;20202;-76
2024/01/24 06:18:41;;;;;;;2.90;1.25;;;;;;;;;;1746831;28;20574;-75
2024/01/24 06:19:32;;;;;;;4.53;1.30;;;;;;;;;;1743256;28;20237;-76
2024/01/24 06:20:23;;;;;;;2.45;1.25;;;;;;;;;;1742493;28;20238;-76
2024/01/24 06:21:16;;;;;;;1.65;0.90;;;;;;;;;;1742963;28;20240;-78
2024/01/24 06:22:07;;;;;;;1.85;0.95;;;;;;;;;;1742119;28;20199;-78
2024/01/24 06:22:58;;;;;;;2.80;1.00;;;;;;;;;;1736375;28;20234;-79
2024/01/24 06:23:50;;;;;;;2.38;1.30;;;;;;;;;;1738817;28;20678;-78
2024/01/24 06:24:41;;;;;;;2.28;1.13;;;;;;;;;;1748961;28;20237;-78
2024/01/24 06:25:32;;;;;;;2.50;0.90;;;;;;;;;;1750197;28;20194;-78
2024/01/24 06:26:24;;;;;;;3.10;1.10;;;;;;;;;;1745988;28;20210;-78
2024/01/24 06:27:15;;;;;;;2.80;1.23;;;;;;;;;;1743317;28;20682;-78
2024/01/24 06:28:06;;;;;;;1.58;1.00;;;;;;;;;;1743098;28;20191;-78
2024/01/24 06:28:58;;;;;;;3.67;1.42;;;;;;;;;;1743248;28;20199;-78
2024/01/24 06:29:51;;;;;;;1.90;1.10;;;;;;;;;;1744252;28;20206;-78
2024/01/24 06:30:42;;;;;;;3.88;1.23;;;;;;;;;;1748272;28;20260;-78
2024/01/24 06:31:35;;;;;;;2.60;1.13;;;;;;;;;;1738150;28;20202;-79
2024/01/24 06:32:26;;;;;;;2.97;1.10;;;;;;;;;;1741522;28;20222;-78
2024/01/24 06:33:17;;;;;;;1.52;0.95;;;;;;;;;;1743183;28;20195;-78
2024/01/24 06:34:10;;;;;;;2.90;1.27;;;;;;;;;;1748368;28;20429;-78
2024/01/24 06:35:01;;;;;;;1.80;1.10;;;;;;;;;;1749906;28;20229;-78
2024/01/24 06:35:53;;;;;;;1.90;0.90;;;;;;;;;;1763940;22;20991;-84
2024/01/24 06:36:44;;;;;;;2.72;1.13;;;;;;;;;;1736855;28;20571;-84
2024/01/24 06:37:35;;;;;;;2.08;0.90;;;;;;;;;;1739049;28;20199;-84
2024/01/24 06:38:27;;;;;;;3.20;1.20;;;;;;;;;;1743539;28;20201;-84
2024/01/24 06:39:18;;;;;;;2.10;1.20;;;;;;;;;;1743369;28;20199;-86
2024/01/24 06:40:10;;;;;;;1.95;0.70;;;;;;;;;;1736709;28;20192;-84
2024/01/24 06:41:01;;;;;;;2.47;1.20;;;;;;;;;;1736448;28;20679;-84
2024/01/24 06:41:52;;;;;;;2.55;1.13;;;;;;;;;;1736432;28;20195;-85
2024/01/24 06:42:44;;;;;;;2.08;0.95;;;;;;;;;;1736843;28;20302;-84
2024/01/24 06:43:39;;;;;;;2.40;1.08;;;;;;;;;;1736248;28;20684;-86
2024/01/24 06:44:32;;;;;;;1.80;1.10;;;;;;;;;;1736563;28;20203;-84
2024/01/24 06:45:23;;;;;;;1.75;1.00;;;;;;;;;;1740310;28;20218;-83
2024/01/24 06:46:15;;;;;;;2.13;1.10;;;;;;;;;;1743649;28;20206;-83
2024/01/24 06:47:07;;;;;;;2.53;1.15;;;;;;;;;;1741447;28;20725;-83
2024/01/24 06:47:59;;;;;;;3.60;1.42;;;;;;;;;;1743697;28;20202;-83
2024/01/24 06:48:51;;;;;;;2.80;1.00;;;;;;;;;;1742560;28;20294;-83
2024/01/24 06:49:42;;;;;;;2.30;0.98;;;;;;;;;;1743387;28;20207;-83
2024/01/24 06:50:34;;;;;;;1.80;1.30;;;;;;;;;;1738527;28;20216;-83
2024/01/24 06:51:25;;;;;;;3.47;1.30;;;;;;;;;;1742869;28;20206;-83
2024/01/24 06:52:16;;;;;;;3.33;1.38;;;;;;;;;;1743509;28;20249;-83
2024/01/24 06:53:10;;;;;;;2.95;1.63;;;;;;;;;;1738701;28;20281;-83
2024/01/24 06:54:01;;;;;;;1.85;1.20;;;;;;;;;;1736292;28;20196;-83
2024/01/24 06:54:53;;;;;;;2.75;1.50;;;;;;;;;;1736784;28;20215;-82
2024/01/24 06:55:44;;;;;;;2.63;1.10;;;;;;;;;;1736420;28;20223;-82
2024/01/24 06:56:35;;;;;;;2.22;1.08;;;;;;;;;;1738323;28;20254;-82
2024/01/24 06:57:27;;;;;;;2.83;1.40;;;;;;;;;;1743536;28;20203;-82
2024/01/24 06:58:19;;;;;;;5.25;1.80;;;;;;;;;;1743106;28;20215;-82
2024/01/24 06:59:11;;;;;;;1.10;0.82;;;;;;;;;;1736448;28;20192;-82
2024/01/24 07:00:04;;;;;;;3.92;1.23;;;;;;;;;;1736528;28;20195;-82
2024/01/24 07:00:56;;;;;;;1.40;0.90;;;;;;;;;;1738308;28;20248;-82
2024/01/24 07:01:50;;;;;;;3.13;1.15;;;;;;;;;;1734494;28;20607;-82
2024/01/24 07:02:42;;;;;;;2.13;1.17;;;;;;;;;;1734653;28;20245;-82
2024/01/24 07:03:34;;;;;;;1.92;1.00;;;;;;;;;;1731660;28;20204;-82
2024/01/24 07:04:26;;;;;;;2.67;1.20;;;;;;;;;;1733043;28;20652;-82
2024/01/24 07:05:17;;;;;;;3.67;1.20;;;;;;;;;;1732074;28;20203;-82
2024/01/24 07:06:09;;;;;;;3.45;1.23;;;;;;;;;;1733540;28;20218;-82
2024/01/24 07:07:01;;;;;;;2.92;1.23;;;;;;;;;;1734881;28;20195;-83
2024/01/24 07:07:52;;;;;;;4.63;1.40;;;;;;;;;;1734115;28;20714;-82
2024/01/24 07:08:43;;;;;;;2.72;1.20;;;;;;;;;;1734394;28;20219;-83
2024/01/24 07:09:36;;;;;;;2.60;1.15;;;;;;;;;;1734675;28;20195;-82
2024/01/24 07:10:28;;;;;;;3.75;1.50;;;;;;;;;;1733195;28;20243;-82
2024/01/24 07:11:20;;;;;;;3.70;1.52;;;;;;;;;;1734329;28;20614;-82
2024/01/24 07:12:12;;;;;;;2.42;1.10;;;;;;;;;;1739652;28;20582;-84
2024/01/24 07:13:04;;;;;;;5.43;1.10;;;;;;;;;;1736434;28;20192;-82
2024/01/24 07:13:57;;;;;;;3.10;1.20;;;;;;;;;;1734163;28;20283;-83
2024/01/24 07:14:48;;;;;;;1.77;0.88;;;;;;;;;;1734661;28;20200;-84
2024/01/24 07:15:39;;;;;;;2.35;1.20;;;;;;;;;;1736547;28;20210;-82
2024/01/24 07:16:31;;;;;;;1.70;1.05;;;;;;;;;;1741855;28;20227;-85
2024/01/24 07:17:23;;;;;;;2.05;1.10;;;;;;;;;;1729497;28;20208;-84
2024/01/24 07:18:17;;;;;;;1.67;0.80;;;;;;;;;;1734838;28;20614;-84
2024/01/24 07:19:08;;;;;;;2.47;1.10;;;;;;;;;;1734826;28;20211;-84
2024/01/24 07:20:00;;;;;;;2.25;1.23;;;;;;;;;;1740904;28;20276;-84
2024/01/24 07:20:52;;;;;;;1.80;1.17;;;;;;;;;;1738451;28;20265;-84
2024/01/24 07:21:43;;;;;;;1.25;1.00;;;;;;;;;;1740107;28;20211;-83
2024/01/24 07:22:34;;;;;;;2.83;1.25;;;;;;;;;;1742118;28;20203;-83
2024/01/24 07:23:26;;;;;;;2.97;0.90;;;;;;;;;;1737759;28;20214;-85
2024/01/24 07:24:17;;;;;;;2.92;1.10;;;;;;;;;;1735148;28;20199;-84
2024/01/24 07:25:09;;;;;;;2.42;0.80;;;;;;;;;;1736962;28;20203;-84
2024/01/24 07:26:02;;;;;;;3.15;1.23;;;;;;;;;;1739626;28;20216;-84
2024/01/24 07:26:53;;;;;;;1.80;0.90;;;;;;;;;;1735210;28;20246;-82
2024/01/24 07:27:45;;;;;;;1.92;1.05;;;;;;;;;;1731152;28;20234;-81
2024/01/24 07:28:37;;;;;;;2.40;1.00;;;;;;;;;;1732604;28;20291;-81
2024/01/24 07:29:28;;;;;;;2.35;1.27;;;;;;;;;;1733417;28;20279;-83
2024/01/24 07:30:22;;;;;;;3.70;1.10;;;;;;;;;;1733457;28;20196;-84
2024/01/24 07:31:13;;;;;;;1.30;1.05;;;;;;;;;;1734923;28;20219;-83
2024/01/24 07:32:04;;;;;;;1.67;1.30;;;;;;;;;;1734548;28;20728;-84
2024/01/24 07:32:56;;;;;;;3.45;1.20;;;;;;;;;;1736635;28;20206;-82
2024/01/24 07:33:49;;;;;;;1.10;0.63;;;;;;;;;;1729162;28;20200;-82
2024/01/24 07:34:40;;;;;;;2.13;1.10;;;;;;;;;;1735881;28;20211;-82
2024/01/24 07:35:32;;;;;;;2.40;1.05;;;;;;;;;;1735229;28;20200;-82
2024/01/24 07:36:23;;;;;;;3.20;1.05;;;;;;;;;;1734668;28;20196;-82
2024/01/24 07:37:14;;;;;;;2.28;0.90;;;;;;;;;;1741665;28;20205;-83
2024/01/24 07:38:06;;;;;;;1.80;1.20;;;;;;;;;;1741864;28;20599;-82
2024/01/24 07:38:57;;;;;;;2.17;1.48;;;;;;;;;;1736044;28;20230;-82
2024/01/24 07:39:48;;;;;;;2.33;1.00;;;;;;;;;;1734369;28;20680;-82
2024/01/24 07:40:40;;;;;;;2.03;1.10;;;;;;;;;;1734598;28;20200;-84
2024/01/24 07:41:31;;;;;;;1.23;0.98;;;;;;;;;;1734928;28;20556;-83
2024/01/24 07:42:23;;;;;;;2.83;1.17;;;;;;;;;;1737084;28;20261;-82
2024/01/24 07:43:15;;;;;;;2.10;1.20;;;;;;;;;;1741483;28;20213;-82
2024/01/24 07:44:07;;;;;;;1.90;1.10;;;;;;;;;;1737827;28;20192;-82
2024/01/24 07:44:59;;;;;;;1.95;1.20;;;;;;;;;;1739221;28;20282;-84
2024/01/24 07:45:50;;;;;;;1.98;1.05;;;;;;;;;;1734637;28;20227;-84
2024/01/24 07:46:43;;;;;;;1.65;0.80;;;;;;;;;;1735037;28;20242;-84
2024/01/24 07:47:34;;;;;;;1.80;0.90;;;;;;;;;;1735199;28;20226;-84
2024/01/24 07:48:25;;;;;;;1.30;0.88;;;;;;;;;;1734311;28;20680;-83
2024/01/24 07:49:18;;;;;;;1.83;1.17;;;;;;;;;;1734572;28;20214;-83
2024/01/24 07:50:11;;;;;;;2.30;1.05;;;;;;;;;;1737149;28;20211;-84
2024/01/24 07:51:04;;;;;;;1.20;0.80;;;;;;;;;;1734764;28;20230;-84
2024/01/24 07:51:55;;;;;;;1.38;0.77;;;;;;;;;;1737735;28;20680;-84
2024/01/24 07:52:47;;;;;;;2.20;1.00;;;;;;;;;;1736285;28;20192;-84
2024/01/24 07:53:40;;;;;;;1.10;0.80;;;;;;;;;;1735027;28;20688;-84
2024/01/24 07:54:31;;;;;;;1.95;1.10;;;;;;;;;;1735271;28;20204;-84
2024/01/24 07:55:23;;;;;;;2.40;1.00;;;;;;;;;;1735289;28;20620;-84
2024/01/24 07:56:14;;;;;;;2.45;0.90;;;;;;;;;;1741899;28;20207;-84
2024/01/24 07:57:06;;;;;;;2.63;0.90;;;;;;;;;;1741942;28;20198;-84
2024/01/24 07:57:58;;;;;;;2.97;0.82;;;;;;;;;;1736910;28;20203;-84
2024/01/24 07:58:49;;;;;;;1.20;0.80;;;;;;;;;;1735208;28;20203;-84
2024/01/24 07:59:41;;;;;;;1.45;1.08;;;;;;;;;;1738909;28;20550;-84
2024/01/24 08:00:32;;;;;;;2.58;0.70;;;;;;;;;;1737887;28;21946;-84
2024/01/24 08:01:23;;;;;;;3.75;0.90;;;;;;;;;;1736954;28;20204;-84
2024/01/24 08:02:16;;;;;;;1.52;0.90;;;;;;;;;;1741833;28;20202;-84
2024/01/24 08:03:07;;;;;;;3.97;1.02;;;;;;;;;;1741329;28;20547;-84
2024/01/24 08:03:59;;;;;;;1.38;0.90;;;;;;;;;;1735388;28;20196;-84
2024/01/24 08:04:52;;;;;;;1.20;0.80;;;;;;;;;;1735125;28;20204;-84
2024/01/24 08:05:43;;;;;;;3.30;1.20;;;;;;;;;;1741495;28;20605;-84
2024/01/24 08:06:35;;;;;;;4.35;1.63;;;;;;;;;;1742159;28;20644;-84
2024/01/24 08:07:26;;;;;;;1.73;0.75;;;;;;;;;;1737023;28;20220;-84
2024/01/24 08:08:18;;;;;;;1.80;1.08;;;;;;;;;;1735142;28;20290;-84
2024/01/24 08:09:09;;;;;;;2.28;1.00;;;;;;;;;;1738212;28;20207;-84
2024/01/24 08:10:01;;;;;;;1.38;0.80;;;;;;;;;;1742190;28;20214;-84
2024/01/24 08:10:53;;;;;;;1.23;1.05;;;;;;;;;;1737251;28;20192;-84
2024/01/24 08:11:44;;;;;;;2.58;0.75;;;;;;;;;;1741684;28;20207;-84
2024/01/24 08:12:35;;;;;;;1.80;0.80;;;;;;;;;;1741325;28;20696;-84
2024/01/24 08:13:27;;;;;;;1.88;0.70;;;;;;;;;;1735043;28;20262;-84
2024/01/24 08:14:18;;;;;;;1.10;0.73;;;;;;;;;;1735041;28;20200;-84
2024/01/24 08:15:10;;;;;;;1.25;0.70;;;;;;;;;;1740787;28;20667;-84
2024/01/24 08:16:02;;;;;;;2.55;1.10;;;;;;;;;;1741837;28;20237;-84
2024/01/24 08:17:03;;;;;;;1.55;0.88;;;;;;;;;;1737502;28;20211;-84
2024/01/24 08:17:54;;;;;;;1.33;0.70;;;;;;;;;;1734994;28;20226;-84
2024/01/24 08:18:47;;;;;;;1.58;0.88;;;;;;;;;;1738997;28;20568;-84
2024/01/24 08:19:39;;;;;;;2.28;1.10;;;;;;;;;;1741970;28;20199;-84
2024/01/24 08:20:32;;;;;;;1.55;0.73;;;;;;;;;;1738720;28;20584;-84
2024/01/24 08:21:23;;;;;;;2.22;0.80;;;;;;;;;;1734889;28;20214;-84
2024/01/24 08:22:15;;;;;;;2.22;0.80;;;;;;;;;;1734998;28;20188;-84
2024/01/24 08:23:07;;;;;;;2.53;0.85;;;;;;;;;;1734814;28;20195;-84
2024/01/24 08:23:58;;;;;;;2.35;0.70;;;;;;;;;;1735064;28;20673;-84
2024/01/24 08:24:49;;;;;;;1.52;0.70;;;;;;;;;;1741652;28;20203;-84
2024/01/24 08:25:41;;;;;;;0.80;0.60;;;;;;;;;;1741807;28;20896;-84
2024/01/24 08:26:32;;;;;;;1.90;0.60;;;;;;;;;;1736759;28;20554;-84
2024/01/24 08:27:24;;;;;;;1.13;0.70;;;;;;;;;;1734955;28;20191;-84
2024/01/24 08:28:16;;;;;;;1.45;0.63;;;;;;;;;;1738638;28;20288;-84
2024/01/24 08:29:07;;;;;;;1.10;0.68;;;;;;;;;;1741917;28;20207;-84
2024/01/24 08:29:59;;;;;;;1.83;0.80;;;;;;;;;;1739758;28;20230;-84
2024/01/24 08:30:51;;;;;;;1.45;0.63;;;;;;;;;;1734164;28;20219;-84
2024/01/24 08:31:43;;;;;;;1.27;0.60;;;;;;;;;;1735015;28;20642;-84
2024/01/24 08:32:34;;;;;;;1.95;0.90;;;;;;;;;;1735200;28;20680;-84
2024/01/24 08:33:26;;;;;;;0.80;0.60;;;;;;;;;;1734874;28;20204;-84
2024/01/24 08:34:17;;;;;;;1.48;0.70;;;;;;;;;;1741104;28;20211;-84
2024/01/24 08:35:09;;;;;;;1.00;0.60;;;;;;;;;;1741863;28;20570;-84
2024/01/24 08:36:02;;;;;;;0.93;0.75;;;;;;;;;;1737056;28;20720;-84
2024/01/24 08:36:54;;;;;;;11.05;7.10;;;;;;;;;;1734952;28;20203;-84
2024/01/24 08:37:46;;;;;;;9.77;6.85;;;;;;;;;;1738408;28;20286;-83
2024/01/24 08:38:37;;;;;;;3.47;2.22;;;;;;;;;;1741816;28;20218;-83
2024/01/24 08:39:28;;;;;;;4.28;3.00;;;;;;;;;;1740046;28;20676;-84
2024/01/24 08:40:21;;;;;;;1.27;1.10;;;;;;;;;;1734552;28;20202;-84
2024/01/24 08:41:12;;;;;;;1.35;1.08;;;;;;;;;;1728951;28;20665;-83
2024/01/24 08:42:03;;;;;;;1.35;0.95;;;;;;;;;;1741776;28;20214;-83
2024/01/24 08:42:55;;;;;;;1.38;0.90;;;;;;;;;;1741879;28;20201;-84
2024/01/24 08:43:46;;;;;;;1.25;1.02;;;;;;;;;;1735768;28;20214;-84
2024/01/24 08:44:37;;;;;;;1.40;1.08;;;;;;;;;;1735140;28;20196;-84
2024/01/24 08:45:29;;;;;;;1.55;0.88;;;;;;;;;;1738980;28;20234;-84
2024/01/24 08:46:20;;;;;;;1.08;0.98;;;;;;;;;;1741888;28;20230;-83
2024/01/24 08:47:11;;;;;;;1.33;0.80;;;;;;;;;;1739039;28;20199;-84
2024/01/24 08:48:04;;;;;;;1.30;0.95;;;;;;;;;;1734993;28;20646;-83
2024/01/24 08:48:55;;;;;;;1.10;0.80;;;;;;;;;;1736174;28;20223;-84
2024/01/24 08:49:46;;;;;;;1.10;0.50;;;;;;;;;;1741761;28;20202;-83
2024/01/24 08:50:38;;;;;;;1.42;0.90;;;;;;;;;;1738144;28;20295;-84
2024/01/24 08:51:31;;;;;;;1.70;0.60;;;;;;;;;;1734516;28;20220;-84
2024/01/24 08:52:22;;;;;;;0.95;0.70;;;;;;;;;;1735120;28;20207;-83
2024/01/24 08:53:14;;;;;;;0.98;0.60;;;;;;;;;;1734802;28;20210;-83
2024/01/24 08:54:06;;;;;;;1.00;0.60;;;;;;;;;;1734704;28;20203;-84
2024/01/24 08:54:57;;;;;;;0.95;0.60;;;;;;;;;;1738415;28;20199;-84
2024/01/24 08:55:49;;;;;;;1.45;0.75;;;;;;;;;;1742058;28;20211;-83
2024/01/24 08:56:40;;;;;;;0.93;0.50;;;;;;;;;;1739506;28;20203;-83
2024/01/24 08:57:31;;;;;;;2.42;0.60;;;;;;;;;;1734854;28;20287;-83
2024/01/24 08:58:23;;;;;;;1.20;0.80;;;;;;;;;;1735248;28;20204;-84
2024/01/24 08:59:14;;;;;;;1.23;0.60;;;;;;;;;;1741659;28;20195;-83
2024/01/24 09:00:07;;;;;;;2.58;0.90;;;;;;;;;;1741802;28;20244;-83
2024/01/24 09:01:00;;;;;;;0.77;0.50;;;;;;;;;;1734587;28;20199;-84
2024/01/24 09:01:55;;;;;;;0.90;0.60;;;;;;;;;;1734819;28;20204;-83
2024/01/24 09:02:47;;;;;;;0.70;0.50;;;;;;;;;;1734841;28;20215;-83
2024/01/24 09:03:39;;;;;;;0.80;0.50;;;;;;;;;;1734833;28;20209;-84
2024/01/24 09:04:30;;;;;;;0.90;0.50;;;;;;;;;;1738724;28;20344;-83
2024/01/24 09:05:22;;;;;;;0.82;0.50;;;;;;;;;;1741653;28;20207;-83
2024/01/24 09:06:13;;;;;;;1.25;0.60;;;;;;;;;;1739272;28;20211;-84
2024/01/24 09:07:05;;;;;;;0.90;0.60;;;;;;;;;;1735028;28;20208;-83
2024/01/24 09:07:57;;;;;;;0.98;0.65;;;;;;;;;;1735723;28;20207;-83
2024/01/24 09:08:51;;;;;;;1.10;0.82;;;;;;;;;;1741871;28;20207;-83
2024/01/24 09:09:42;;;;;;;1.02;0.68;;;;;;;;;;1741964;28;20203;-83
2024/01/24 09:10:36;;;;;;;0.70;0.50;;;;;;;;;;1729355;28;20200;-83
2024/01/24 09:11:27;;;;;;;0.77;0.60;;;;;;;;;;1734676;28;20450;-83
2024/01/24 09:12:18;;;;;;;0.70;0.50;;;;;;;;;;1734573;28;20660;-83
2024/01/24 09:13:10;;;;;;;0.70;0.50;;;;;;;;;;1734653;28;20196;-83
2024/01/24 09:14:01;;;;;;;1.27;0.60;;;;;;;;;;1738714;28;20218;-83
2024/01/24 09:14:52;;;;;;;0.82;0.60;;;;;;;;;;1741669;28;20660;-83
2024/01/24 09:15:44;;;;;;;1.05;0.63;;;;;;;;;;1739390;28;20323;-84
2024/01/24 09:16:35;;;;;;;1.80;0.75;;;;;;;;;;1734881;28;20563;-83
2024/01/24 09:17:26;;;;;;;1.83;0.80;;;;;;;;;;1735388;28;20215;-83
2024/01/24 09:18:18;;;;;;;0.90;0.70;;;;;;;;;;1741636;28;20199;-84
2024/01/24 09:19:10;;;;;;;2.35;0.63;;;;;;;;;;1741499;28;20204;-83
2024/01/24 09:20:02;;;;;;;0.75;0.57;;;;;;;;;;1735305;28;20290;-84
2024/01/24 09:20:53;;;;;;;0.90;0.70;;;;;;;;;;1734155;28;20204;-83
2024/01/24 09:21:44;;;;;;;0.90;0.60;;;;;;;;;;1734824;28;20219;-83
2024/01/24 09:22:37;;;;;;;0.75;0.50;;;;;;;;;;1734578;28;20262;-84
2024/01/24 09:23:29;;;;;;;1.23;0.60;;;;;;;;;;1737875;28;20206;-84
2024/01/24 09:24:20;;;;;;;1.30;0.60;;;;;;;;;;1741033;28;20199;-84
2024/01/24 09:25:12;;;;;;;1.13;0.60;;;;;;;;;;1739581;28;20688;-84
2024/01/24 09:26:03;;;;;;;0.80;0.60;;;;;;;;;;1734576;28;20223;-84
2024/01/24 09:26:55;;;;;;;0.90;0.70;;;;;;;;;;1734915;28;20199;-84
2024/01/24 09:27:47;;;;;;;0.88;0.60;;;;;;;;;;1741528;28;20290;-84
2024/01/24 09:28:38;;;;;;;0.90;0.70;;;;;;;;;;1741536;28;20210;-84
2024/01/24 09:29:29;;;;;;;0.80;0.57;;;;;;;;;;1735486;28;20200;-84
2024/01/24 09:30:21;;;;;;;1.30;0.60;;;;;;;;;;1734315;28;20639;-84
2024/01/24 09:31:12;;;;;;;0.80;0.50;;;;;;;;;;1734028;28;20210;-84
2024/01/24 09:32:04;;;;;;;1.00;0.60;;;;;;;;;;1734499;28;20208;-84
2024/01/24 09:32:56;;;;;;;1.45;0.50;;;;;;;;;;1737052;28;20676;-84
2024/01/24 09:33:47;;;;;;;0.70;0.50;;;;;;;;;;1741322;28;20569;-84
2024/01/24 09:34:39;;;;;;;1.00;0.43;;;;;;;;;;1740164;28;20211;-85
2024/01/24 09:35:30;;;;;;;0.70;0.50;;;;;;;;;;1734143;28;20669;-84
2024/01/24 09:36:23;;;;;;;0.80;0.60;;;;;;;;;;1734345;28;20203;-85
2024/01/24 09:37:15;;;;;;;0.80;0.50;;;;;;;;;;1727483;28;20200;-84
2024/01/24 09:38:07;;;;;;;0.70;0.45;;;;;;;;;;1727756;28;20208;-84
2024/01/24 09:38:58;;;;;;;1.63;0.55;;;;;;;;;;1734058;28;20196;-84
2024/01/24 09:39:52;;;;;;;1.23;0.60;;;;;;;;;;1734543;28;20207;-84
2024/01/24 09:40:43;;;;;;;0.75;0.57;;;;;;;;;;1738519;28;20211;-84
2024/01/24 09:41:38;;;;;;;0.70;0.60;;;;;;;;;;1741381;28;20195;-84
2024/01/24 09:42:32;;;;;;;0.77;0.57;;;;;;;;;;1737970;28;20204;-84
2024/01/24 09:43:23;;;;;;;0.90;0.47;;;;;;;;;;1734529;28;20215;-84
2024/01/24 09:44:17;;;;;;;1.10;0.60;;;;;;;;;;1736530;28;20250;-84
2024/01/24 09:45:09;;;;;;;0.80;0.50;;;;;;;;;;1741477;28;20211;-84
2024/01/24 09:46:02;;;;;;;0.85;0.50;;;;;;;;;;1740666;28;20269;-84
2024/01/24 09:46:55;;;;;;;1.75;0.55;;;;;;;;;;1734640;28;20700;-84
2024/01/24 09:47:48;;;;;;;0.75;0.50;;;;;;;;;;1734599;28;20614;-84
2024/01/24 09:48:40;;;;;;;0.70;0.52;;;;;;;;;;1730507;28;20361;-84
2024/01/24 09:49:32;;;;;;;0.70;0.50;;;;;;;;;;1734648;28;20661;-84
2024/01/24 09:50:25;;;;;;;1.05;0.40;;;;;;;;;;1734177;28;20210;-84
2024/01/24 09:51:16;;;;;;;0.80;0.50;;;;;;;;;;1734498;28;20684;-84
2024/01/24 09:52:08;;;;;;;0.80;0.52;;;;;;;;;;1738484;28;20306;-84
2024/01/24 09:53:02;;;;;;;0.80;0.50;;;;;;;;;;1741577;28;20276;-84
2024/01/24 09:53:55;;;;;;;0.70;0.50;;;;;;;;;;1738452;28;20216;-84
2024/01/24 09:54:47;;;;;;;1.17;0.60;;;;;;;;;;1734666;28;20283;-84
2024/01/24 09:55:39;;;;;;;0.77;0.50;;;;;;;;;;1735885;28;20568;-84
2024/01/24 09:56:32;;;;;;;1.05;0.45;;;;;;;;;;1741435;28;20206;-84
2024/01/24 09:57:24;;;;;;;1.85;0.57;;;;;;;;;;1741097;28;20252;-84
2024/01/24 09:58:16;;;;;;;0.90;0.52;;;;;;;;;;1734461;28;20297;-84
2024/01/24 09:59:07;;;;;;;0.90;0.60;;;;;;;;;;1734184;28;20226;-84
2024/01/24 09:59:59;;;;;;;0.80;0.50;;;;;;;;;;1734306;28;20261;-84
2024/01/24 10:00:52;;;;;;;0.93;0.52;;;;;;;;;;1734172;28;20192;-84
2024/01/24 10:01:43;;;;;;;0.95;0.47;;;;;;;;;;1738993;28;20199;-84
2024/01/24 10:02:34;;;;;;;0.70;0.50;;;;;;;;;;1741392;28;20719;-84
2024/01/24 10:03:26;;;;;;;0.80;0.40;;;;;;;;;;1738522;28;20203;-84
2024/01/24 10:04:18;;;;;;;0.80;0.50;;;;;;;;;;1734705;28;20208;-84
2024/01/24 10:05:11;;;;;;;0.90;0.60;;;;;;;;;;1735927;28;20199;-84
2024/01/24 10:06:04;;;;;;;0.80;0.52;;;;;;;;;;1741302;28;20297;-84
2024/01/24 10:06:55;;;;;;;1.08;0.50;;;;;;;;;;1741114;28;20203;-84
2024/01/24 10:07:46;;;;;;;1.63;0.73;;;;;;;;;;1734390;28;20587;-84
2024/01/24 10:08:38;;;;;;;0.75;0.60;;;;;;;;;;1734143;28;20258;-84
2024/01/24 10:09:31;;;;;;;0.80;0.50;;;;;;;;;;1734267;28;20208;-84
2024/01/24 10:10:22;;;;;;;0.73;0.52;;;;;;;;;;1734199;28;20211;-84
2024/01/24 10:11:14;;;;;;;0.90;0.50;;;;;;;;;;1738498;28;20207;-84
2024/01/24 10:12:05;;;;;;;1.02;0.60;;;;;;;;;;1741344;28;20199;-84
2024/01/24 10:12:57;;;;;;;0.70;0.47;;;;;;;;;;1738294;28;20290;-84
2024/01/24 10:13:49;;;;;;;0.70;0.50;;;;;;;;;;1734366;28;20210;-84
2024/01/24 10:14:41;;;;;;;1.17;0.50;;;;;;;;;;1735908;28;20266;-84
2024/01/24 10:15:33;;;;;;;0.80;0.50;;;;;;;;;;1741187;28;20191;-84
2024/01/24 10:16:24;;;;;;;0.70;0.50;;;;;;;;;;1741360;28;20291;-84
2024/01/24 10:17:15;;;;;;;0.63;0.40;;;;;;;;;;1727729;28;20196;-84
2024/01/24 10:18:08;;;;;;;0.80;0.40;;;;;;;;;;1727643;28;20199;-84
2024/01/24 10:18:59;;;;;;;1.00;0.63;;;;;;;;;;1733450;28;20204;-84
2024/01/24 10:19:50;;;;;;;8.05;7.35;;;;;;;;;;1734545;28;20200;-84
2024/01/24 10:20:43;;;;;;;1.75;1.00;;;;;;;;;;1737941;28;20199;-85
2024/01/24 10:21:34;;;;;;;0.80;0.50;;;;;;;;;;1741408;28;20203;-84
2024/01/24 10:22:25;;;;;;;0.88;0.43;;;;;;;;;;1738533;28;20659;-84
2024/01/24 10:23:17;;;;;;;1.60;0.60;;;;;;;;;;1734504;28;20204;-84
2024/01/24 10:24:09;;;;;;;0.70;0.50;;;;;;;;;;1735238;28;20199;-84
2024/01/24 10:25:03;;;;;;;0.70;0.50;;;;;;;;;;1741224;28;20260;-84
2024/01/24 10:25:54;;;;;;;0.82;0.50;;;;;;;;;;1741355;28;20313;-84
2024/01/24 10:26:45;;;;;;;0.80;0.50;;;;;;;;;;1734342;28;20200;-85
2024/01/24 10:27:38;;;;;;;1.85;0.50;;;;;;;;;;1734326;28;20200;-84
2024/01/24 10:28:31;;;;;;;1.10;0.50;;;;;;;;;;1738592;28;20207;-84
2024/01/24 10:29:22;;;;;;;0.70;0.50;;;;;;;;;;1734285;28;20254;-84
2024/01/24 10:30:15;;;;;;;2.38;0.50;;;;;;;;;;1737103;28;20207;-84
2024/01/24 10:31:07;;;;;;;0.80;0.50;;;;;;;;;;1733969;28;20204;-84
2024/01/24 10:31:58;;;;;;;0.82;0.50;;;;;;;;;;1734454;28;20234;-84
2024/01/24 10:32:50;;;;;;;1.45;0.50;;;;;;;;;;1734327;28;20679;-84
2024/01/24 10:33:42;;;;;;;1.00;0.50;;;;;;;;;;1735502;28;20265;-84
2024/01/24 10:34:34;;;;;;;0.68;0.40;;;;;;;;;;1741317;28;20683;-84
2024/01/24 10:35:25;;;;;;;0.77;0.50;;;;;;;;;;1741737;28;20218;-84
2024/01/24 10:36:16;;;;;;;0.70;0.50;;;;;;;;;;1735944;28;20238;-84
2024/01/24 10:37:08;;;;;;;0.70;0.50;;;;;;;;;;1735566;28;20202;-84
2024/01/24 10:37:59;;;;;;;0.70;0.52;;;;;;;;;;1740887;28;20211;-84
2024/01/24 10:38:53;;;;;;;0.70;0.40;;;;;;;;;;1738667;28;20196;-84
2024/01/24 10:39:46;;;;;;;0.80;0.50;;;;;;;;;;1739611;28;20214;-84
2024/01/24 10:40:39;;;;;;;0.70;0.50;;;;;;;;;;1742158;28;20714;-84
2024/01/24 10:41:30;;;;;;;1.48;0.60;;;;;;;;;;1739772;28;20203;-84
2024/01/24 10:42:24;;;;;;;0.80;0.50;;;;;;;;;;1735726;28;20620;-84
2024/01/24 10:43:20;;;;;;;0.70;0.50;;;;;;;;;;1737131;28;20218;-84
2024/01/24 10:44:19;;;;;;;0.70;0.40;;;;;;;;;;1742624;28;20199;-84
2024/01/24 10:45:11;;;;;;;0.80;0.50;;;;;;;;;;1740847;28;20221;-84
2024/01/24 10:46:07;;;;;;;1.08;0.50;;;;;;;;;;1735610;28;20220;-84
2024/01/24 10:46:58;;;;;;;0.80;0.50;;;;;;;;;;1736262;28;20568;-84
2024/01/24 10:47:51;;;;;;;1.23;0.50;;;;;;;;;;1742561;28;20679;-84
2024/01/24 10:48:43;;;;;;;0.80;0.50;;;;;;;;;;1742692;28;20202;-84
2024/01/24 10:49:34;;;;;;;0.80;0.50;;;;;;;;;;1735865;28;20212;-84
2024/01/24 10:50:26;;;;;;;0.70;0.40;;;;;;;;;;1734920;28;20283;-84
2024/01/24 10:51:19;;;;;;;0.60;0.40;;;;;;;;;;1735635;28;20207;-84
2024/01/24 10:52:10;;;;;;;0.70;0.50;;;;;;;;;;1735394;28;20246;-84
2024/01/24 10:53:03;;;;;;;0.70;0.50;;;;;;;;;;1739050;28;20260;-85
2024/01/24 10:53:54;;;;;;;0.70;0.47;;;;;;;;;;1742384;28;20226;-84
2024/01/24 10:54:47;;;;;;;0.70;0.40;;;;;;;;;;1740270;28;20203;-84
2024/01/24 10:55:40;;;;;;;1.83;0.98;;;;;;;;;;1735592;28;20253;-84
2024/01/24 10:56:33;;;;;;;0.70;0.50;;;;;;;;;;1736351;28;20204;-84
2024/01/24 10:57:25;;;;;;;0.80;0.50;;;;;;;;;;1742316;28;20268;-84
2024/01/24 10:58:17;;;;;;;0.88;0.40;;;;;;;;;;1742533;28;20199;-84
2024/01/24 10:59:08;;;;;;;1.52;0.40;;;;;;;;;;1735537;28;20212;-84
2024/01/24 11:00:01;;;;;;;0.70;0.50;;;;;;;;;;1735535;28;20227;-84
2024/01/24 11:00:53;;;;;;;0.70;0.50;;;;;;;;;;1740697;28;20567;-84
2024/01/24 11:01:44;;;;;;;0.75;0.40;;;;;;;;;;1742468;28;20211;-84
2024/01/24 11:02:37;;;;;;;4.00;0.60;;;;;;;;;;1738614;28;20657;-84
2024/01/24 11:03:29;;;;;;;0.70;0.52;;;;;;;;;;1735499;28;20203;-84
2024/01/24 11:04:22;;;;;;;1.35;0.50;;;;;;;;;;1738153;28;20211;-84
2024/01/24 11:05:17;;;;;;;0.90;0.50;;;;;;;;;;1735092;28;20199;-84
2024/01/24 11:06:14;;;;;;;1.25;0.60;;;;;;;;;;1737033;28;20219;-84
2024/01/24 11:07:06;;;;;;;1.48;0.50;;;;;;;;;;1736075;28;20196;-84
2024/01/24 11:08:02;;;;;;;0.70;0.50;;;;;;;;;;1735391;28;20192;-84
2024/01/24 11:08:57;;;;;;;0.77;0.55;;;;;;;;;;1735586;28;20215;-84
2024/01/24 11:09:53;;;;;;;0.75;0.55;;;;;;;;;;1736117;28;20196;-84
2024/01/24 11:10:48;;;;;;;0.80;0.50;;;;;;;;;;1741772;28;20662;-84
2024/01/24 11:11:40;;;;;;;0.70;0.40;;;;;;;;;;1742344;28;20203;-84